createdAt,value
2017-11-17T00:00:31.940Z,6.1
2017-11-17T00:01:31.972Z,5.9
2017-11-17T00:02:31.963Z,6.2
2017-11-17T00:03:31.931Z,6.2
2017-11-17T00:04:31.938Z,6.1
2017-11-17T00:05:37.021Z,5.8
2017-11-17T00:06:31.956Z,5.7
2017-11-17T00:07:31.947Z,5.6
2017-11-17T00:08:31.946Z,6
2017-11-17T00:09:31.967Z,6.2
2017-11-17T00:10:31.945Z,6.1
2017-11-17T00:11:31.967Z,5.7
2017-11-17T00:12:31.945Z,5.5
2017-11-17T00:13:31.934Z,5.6
2017-11-17T00:14:31.966Z,5.6
2017-11-17T00:15:31.934Z,5.7
2017-11-17T00:16:31.951Z,5.3
2017-11-17T00:17:31.947Z,4.9
2017-11-17T00:18:31.938Z,4.5
2017-11-17T00:19:31.965Z,4.1
2017-11-17T00:20:31.944Z,3.7
2017-11-17T00:21:31.956Z,3.4
2017-11-17T00:22:31.944Z,3.7
2017-11-17T00:23:31.955Z,3.7
2017-11-17T00:24:31.938Z,3.5
2017-11-17T00:25:31.967Z,3.3
2017-11-17T00:26:31.928Z,3
2017-11-17T00:27:31.946Z,3.6
2017-11-17T00:28:31.927Z,3.7
2017-11-17T00:29:31.949Z,3.4
2017-11-17T00:30:31.934Z,3.1
2017-11-17T00:31:31.922Z,3.2
2017-11-17T00:32:31.935Z,3.4
2017-11-17T00:33:31.963Z,4
2017-11-17T00:34:31.936Z,4.3
2017-11-17T00:35:31.929Z,4.3
2017-11-17T00:36:31.955Z,4.2
2017-11-17T00:37:31.939Z,4.4
2017-11-17T00:38:31.942Z,4.5
2017-11-17T00:39:31.943Z,4.9
2017-11-17T00:40:31.925Z,4.5
2017-11-17T00:41:31.935Z,4.4
2017-11-17T00:42:31.931Z,4.3
2017-11-17T00:43:31.951Z,4.1
2017-11-17T00:44:31.937Z,3.9
2017-11-17T00:45:31.952Z,4.3
2017-11-17T00:46:31.995Z,4.1
2017-11-17T00:47:31.950Z,4
2017-11-17T00:48:31.929Z,3.8
2017-11-17T00:49:31.947Z,3.4
2017-11-17T00:50:31.920Z,3.3
2017-11-17T00:51:31.927Z,3.1
2017-11-17T00:52:31.959Z,3.2
2017-11-17T00:53:31.921Z,3.5
2017-11-17T00:54:31.941Z,3.5
2017-11-17T00:55:31.922Z,3.4
2017-11-17T00:56:31.932Z,3.2
2017-11-17T00:57:31.917Z,2.9
2017-11-17T00:58:31.910Z,3
2017-11-17T00:59:31.936Z,3.3
2017-11-17T01:00:31.909Z,3.4
2017-11-17T01:01:31.944Z,3.9
2017-11-17T01:02:31.919Z,3.9
2017-11-17T01:03:31.945Z,3.6
2017-11-17T01:04:31.920Z,3.8
2017-11-17T01:05:31.949Z,4.3
2017-11-17T01:06:31.923Z,4.2
2017-11-17T01:07:31.920Z,4.3
2017-11-17T01:08:31.940Z,4
2017-11-17T01:09:31.915Z,4.5
2017-11-17T01:10:31.936Z,5
2017-11-17T01:11:31.923Z,4.7
2017-11-17T01:12:31.939Z,4.3
2017-11-17T01:13:31.911Z,3.9
2017-11-17T01:14:31.940Z,3.5
2017-11-17T01:15:31.925Z,3.2
2017-11-17T01:16:31.926Z,2.9
2017-11-17T01:17:31.909Z,2.6
2017-11-17T01:18:31.930Z,2.4
2017-11-17T01:19:31.935Z,2.2
2017-11-17T01:20:31.908Z,2.2
2017-11-17T01:21:31.918Z,2.3
2017-11-17T01:22:31.945Z,2.4
2017-11-17T01:23:31.912Z,2.2
2017-11-17T01:24:31.921Z,2.1
2017-11-17T01:25:31.911Z,1.9
2017-11-17T01:26:31.925Z,2
2017-11-17T01:27:31.902Z,2
2017-11-17T01:28:31.897Z,2.2
2017-11-17T01:29:31.916Z,2
2017-11-17T01:30:31.983Z,1.8
2017-11-17T01:31:31.897Z,1.9
2017-11-17T01:32:31.934Z,2.1
2017-11-17T01:33:31.912Z,2.6
2017-11-17T01:34:31.906Z,3.2
2017-11-17T01:35:31.897Z,3.5
2017-11-17T01:36:31.923Z,3.3
2017-11-17T01:37:31.911Z,3.3
2017-11-17T01:38:31.905Z,3.5
2017-11-17T01:39:31.912Z,3.6
2017-11-17T01:40:31.906Z,3.7
2017-11-17T01:41:31.904Z,3.9
2017-11-17T01:42:31.921Z,4
2017-11-17T01:43:31.904Z,3.9
2017-11-17T01:44:31.897Z,3.9
2017-11-17T01:45:31.924Z,4.1
2017-11-17T01:46:31.902Z,4.2
2017-11-17T01:47:31.910Z,4.3
2017-11-17T01:48:31.898Z,4.2
2017-11-17T01:49:31.910Z,4.1
2017-11-17T01:50:31.889Z,4.1
2017-11-17T01:51:31.902Z,4
2017-11-17T01:52:31.890Z,3.9
2017-11-17T01:53:31.914Z,3.6
2017-11-17T01:54:31.889Z,3.3
2017-11-17T01:55:31.902Z,3.1
2017-11-17T01:56:31.917Z,2.8
2017-11-17T01:57:31.877Z,2.6
2017-11-17T01:58:31.917Z,2.5
2017-11-17T01:59:31.898Z,2.6
2017-11-17T02:00:31.894Z,2.7
2017-11-17T02:01:31.875Z,2.8
2017-11-17T02:02:31.876Z,2.6
2017-11-17T02:03:31.914Z,2.6
2017-11-17T02:04:31.879Z,2.9
2017-11-17T02:05:31.899Z,2.8
2017-11-17T02:06:31.885Z,3.1
2017-11-17T02:07:31.959Z,3.2
2017-11-17T02:08:31.886Z,3
2017-11-17T02:09:31.917Z,3
2017-11-17T02:10:31.881Z,2.7
2017-11-17T02:11:31.891Z,2.4
2017-11-17T02:12:31.910Z,2.3
2017-11-17T02:13:31.882Z,2.1
2017-11-17T02:14:31.896Z,1.9
2017-11-17T02:15:31.889Z,1.7
2017-11-17T02:16:31.900Z,1.6
2017-11-17T02:17:31.892Z,1.4
2017-11-17T02:18:31.889Z,1.3
2017-11-17T02:19:31.884Z,1.2
2017-11-17T02:20:31.897Z,1.1
2017-11-17T02:21:31.895Z,1.1
2017-11-17T02:22:31.910Z,1
2017-11-17T02:23:31.897Z,0.9
2017-11-17T02:24:31.913Z,0.8
2017-11-17T02:25:31.889Z,0.9
2017-11-17T02:26:31.920Z,0.8
2017-11-17T02:27:31.890Z,0.7
2017-11-17T02:28:31.891Z,0.7
2017-11-17T02:29:31.970Z,0.6
2017-11-17T02:30:31.895Z,0.6
2017-11-17T02:31:31.895Z,0.5
2017-11-17T02:32:31.900Z,0.5
2017-11-17T02:33:31.893Z,0.4
2017-11-17T02:34:31.961Z,0.4
2017-11-17T02:35:31.894Z,0.3
2017-11-17T02:36:31.890Z,0.3
2017-11-17T02:37:31.894Z,0.3
2017-11-17T02:38:31.887Z,0.3
2017-11-17T02:39:32.100Z,0.2
2017-11-17T02:40:31.887Z,0.2
2017-11-17T02:41:31.903Z,0.3
2017-11-17T02:42:31.897Z,0.2
2017-11-17T02:43:31.884Z,0.2
2017-11-17T02:44:32.064Z,0.2
2017-11-17T02:45:31.890Z,0.2
2017-11-17T02:46:31.914Z,0.2
2017-11-17T02:47:31.930Z,0.2
2017-11-17T02:48:31.882Z,0.2
2017-11-17T02:49:31.947Z,0.2
2017-11-17T02:50:31.885Z,0.1
2017-11-17T02:51:31.886Z,0.1
2017-11-17T02:52:31.870Z,0.2
2017-11-17T02:53:31.880Z,0.1
2017-11-17T02:54:32.076Z,0.1
2017-11-17T02:55:31.881Z,0.1
2017-11-17T02:56:31.872Z,0.1
2017-11-17T02:57:31.881Z,0.1
2017-11-17T02:58:31.883Z,0.1
2017-11-17T02:59:31.964Z,0.3
2017-11-17T03:00:31.873Z,0.3
2017-11-17T03:01:31.888Z,0.6
2017-11-17T03:02:31.885Z,0.8
2017-11-17T03:03:31.894Z,0.8
2017-11-17T03:04:31.929Z,0.7
2017-11-17T03:05:31.890Z,0.7
2017-11-17T03:06:31.872Z,1.6
2017-11-17T03:07:31.869Z,1.9
2017-11-17T03:08:31.880Z,1.7
2017-11-17T03:09:33.769Z,2.1
2017-11-17T03:10:31.858Z,2.4
2017-11-17T03:11:31.903Z,2.5
2017-11-17T03:12:31.889Z,2.3
2017-11-17T03:13:31.866Z,2.4
2017-11-17T03:14:31.958Z,2.4
2017-11-17T03:15:31.869Z,2.3
2017-11-17T03:16:31.875Z,2.4
2017-11-17T03:17:31.879Z,3.2
2017-11-17T03:18:31.887Z,3.4
2017-11-17T03:19:31.910Z,3.5
2017-11-17T03:20:31.876Z,3.9
2017-11-17T03:21:31.865Z,3.7
2017-11-17T03:22:31.881Z,3.4
2017-11-17T03:23:31.871Z,3.3
2017-11-17T03:24:31.959Z,3
2017-11-17T03:25:31.863Z,2.7
2017-11-17T03:26:31.892Z,2.4
2017-11-17T03:27:31.860Z,2.2
2017-11-17T03:28:31.880Z,2
2017-11-17T03:29:31.925Z,1.8
2017-11-17T03:30:31.893Z,1.6
2017-11-17T03:31:31.936Z,1.5
2017-11-17T03:32:31.856Z,1.5
2017-11-17T03:33:31.861Z,1.4
2017-11-17T03:34:31.946Z,1.2
2017-11-17T03:35:31.856Z,1.2
2017-11-17T03:36:31.867Z,1.1
2017-11-17T03:37:31.852Z,1
2017-11-17T03:38:31.875Z,0.9
2017-11-17T03:39:31.927Z,0.8
2017-11-17T03:40:31.884Z,0.7
2017-11-17T03:41:31.863Z,0.7
2017-11-17T03:42:31.866Z,0.6
2017-11-17T03:43:31.852Z,0.5
2017-11-17T03:44:31.901Z,0.5
2017-11-17T03:45:31.871Z,0.4
2017-11-17T03:46:31.882Z,0.4
2017-11-17T03:47:31.856Z,0.4
2017-11-17T03:48:31.851Z,0.3
2017-11-17T03:49:31.941Z,0.3
2017-11-17T03:50:31.849Z,0.3
2017-11-17T03:51:31.872Z,0.2
2017-11-17T03:52:31.841Z,0.2
2017-11-17T03:53:31.861Z,0.2
2017-11-17T03:54:31.920Z,0.2
2017-11-17T03:55:31.866Z,0.2
2017-11-17T03:56:31.844Z,0.1
2017-11-17T03:57:31.860Z,0.1
2017-11-17T03:58:31.842Z,0.1
2017-11-17T03:59:31.908Z,0.1
2017-11-17T04:00:31.848Z,0.1
2017-11-17T04:01:31.874Z,0.1
2017-11-17T04:02:31.892Z,0.1
2017-11-17T04:03:31.857Z,0.1
2017-11-17T04:04:31.911Z,0.1
2017-11-17T04:05:31.865Z,0.1
2017-11-17T04:06:31.861Z,0.1
2017-11-17T04:07:31.842Z,0
2017-11-17T04:08:31.863Z,0
2017-11-17T04:09:31.893Z,0
2017-11-17T04:10:31.870Z,0
2017-11-17T04:11:31.853Z,0
2017-11-17T04:12:31.857Z,0
2017-11-17T04:13:31.849Z,0
2017-11-17T04:14:31.918Z,0.1
2017-11-17T04:15:31.837Z,0.1
2017-11-17T04:16:31.851Z,0.1
2017-11-17T04:17:31.846Z,0.1
2017-11-17T04:18:31.872Z,0.1
2017-11-17T04:19:31.916Z,0.1
2017-11-17T04:20:31.876Z,0.1
2017-11-17T04:21:31.834Z,0.2
2017-11-17T04:22:31.894Z,0.2
2017-11-17T04:23:31.832Z,0.2
2017-11-17T04:24:31.910Z,0.1
2017-11-17T04:25:31.829Z,0.1
2017-11-17T04:26:31.855Z,0.1
2017-11-17T04:27:31.842Z,0.1
2017-11-17T04:28:31.849Z,0.1
2017-11-17T04:29:31.898Z,0.1
2017-11-17T04:30:31.852Z,0.1
2017-11-17T04:31:31.835Z,0.1
2017-11-17T04:32:31.873Z,0.1
2017-11-17T04:33:31.830Z,0.1
2017-11-17T04:34:31.904Z,0.2
2017-11-17T04:35:31.823Z,0.2
2017-11-17T04:36:31.851Z,0.2
2017-11-17T04:37:31.826Z,0.1
2017-11-17T04:38:31.855Z,0.1
2017-11-17T04:39:31.900Z,0.1
2017-11-17T04:40:31.852Z,0.1
2017-11-17T04:41:31.823Z,0.1
2017-11-17T04:42:31.845Z,0.1
2017-11-17T04:43:31.830Z,0.1
2017-11-17T04:44:31.894Z,0.1
2017-11-17T04:45:31.826Z,0.1
2017-11-17T04:46:31.854Z,0.1
2017-11-17T04:47:31.825Z,0.1
2017-11-17T04:48:31.845Z,0
2017-11-17T04:49:31.831Z,0
2017-11-17T04:50:31.842Z,0
2017-11-17T04:51:31.830Z,0
2017-11-17T04:52:31.847Z,0
2017-11-17T04:53:31.839Z,0
2017-11-17T04:54:31.824Z,0
2017-11-17T04:55:31.887Z,0
2017-11-17T04:56:51.586Z,0
2017-11-17T04:57:31.832Z,0
2017-11-17T04:58:31.822Z,0
2017-11-17T04:59:31.847Z,0
2017-11-17T05:00:31.834Z,0
2017-11-17T05:01:31.831Z,0
2017-11-17T05:02:31.821Z,0
2017-11-17T05:03:31.822Z,0
2017-11-17T05:04:31.844Z,0
2017-11-17T05:05:31.815Z,0
2017-11-17T05:06:31.846Z,0
2017-11-17T05:07:31.821Z,0
2017-11-17T05:08:31.826Z,0
2017-11-17T05:09:31.815Z,0
2017-11-17T05:10:31.856Z,0
2017-11-17T05:11:31.810Z,0
2017-11-17T05:12:31.830Z,0
2017-11-17T05:13:31.813Z,0
2017-11-17T05:14:31.836Z,0
2017-11-17T05:15:31.809Z,0
2017-11-17T05:16:31.824Z,0
2017-11-17T05:17:31.809Z,0
2017-11-17T05:18:31.846Z,0
2017-11-17T05:19:31.808Z,0
2017-11-17T05:20:31.812Z,0
2017-11-17T05:21:31.804Z,0
2017-11-17T05:22:31.827Z,0
2017-11-17T05:23:31.811Z,0
2017-11-17T05:24:31.846Z,0
2017-11-17T05:25:31.822Z,0
2017-11-17T05:26:31.817Z,0
2017-11-17T05:27:31.984Z,0
2017-11-17T05:28:31.801Z,0
2017-11-17T05:29:31.811Z,0
2017-11-17T05:30:31.823Z,0
2017-11-17T05:31:31.808Z,0
2017-11-17T05:32:31.871Z,0
2017-11-17T05:33:31.807Z,0
2017-11-17T05:34:31.978Z,0
2017-11-17T05:35:31.819Z,0
2017-11-17T05:36:31.807Z,0
2017-11-17T05:37:33.909Z,0
2017-11-17T05:38:31.800Z,0
2017-11-17T05:39:31.797Z,0
2017-11-17T05:40:31.795Z,0
2017-11-17T05:41:31.810Z,0
2017-11-17T05:42:31.810Z,0
2017-11-17T05:43:31.797Z,0
2017-11-17T05:44:31.801Z,0
2017-11-17T05:45:31.806Z,0
2017-11-17T05:46:31.852Z,0
2017-11-17T05:47:31.795Z,0
2017-11-17T05:48:31.798Z,0
2017-11-17T05:49:31.798Z,0
2017-11-17T05:50:31.817Z,0
2017-11-17T05:51:31.801Z,0
2017-11-17T05:52:31.825Z,0
2017-11-17T05:53:31.802Z,0.1
2017-11-17T05:54:31.813Z,0.1
2017-11-17T05:55:31.797Z,0
2017-11-17T05:56:31.821Z,0
2017-11-17T05:57:31.795Z,0
2017-11-17T05:58:31.814Z,0
2017-11-17T05:59:31.794Z,0
2017-11-17T06:00:31.809Z,0
2017-11-17T06:01:31.788Z,0
2017-11-17T06:02:31.813Z,0
2017-11-17T06:03:31.796Z,0
2017-11-17T06:04:31.806Z,0
2017-11-17T06:05:31.787Z,0
2017-11-17T06:06:31.809Z,0
2017-11-17T06:07:31.789Z,0
2017-11-17T06:08:31.801Z,0
2017-11-17T06:09:31.781Z,0
2017-11-17T06:10:31.801Z,0
2017-11-17T06:11:31.791Z,0
2017-11-17T06:12:31.808Z,0
2017-11-17T06:13:31.790Z,0
2017-11-17T06:14:31.810Z,0
2017-11-17T06:15:31.783Z,0
2017-11-17T06:16:31.787Z,0
2017-11-17T06:17:31.793Z,0
2017-11-17T06:18:31.783Z,0
2017-11-17T06:19:31.789Z,0
2017-11-17T06:20:31.787Z,0
2017-11-17T06:21:31.789Z,0
2017-11-17T06:22:31.810Z,0
2017-11-17T06:23:31.781Z,0
2017-11-17T06:24:31.804Z,0
2017-11-17T06:25:31.778Z,0
2017-11-17T06:26:31.794Z,0
2017-11-17T06:27:31.781Z,0
2017-11-17T06:28:31.780Z,0
2017-11-17T06:29:31.785Z,0
2017-11-17T06:30:31.786Z,0
2017-11-17T06:31:31.789Z,0
2017-11-17T06:32:31.772Z,0
2017-11-17T06:33:31.781Z,0
2017-11-17T06:34:31.787Z,0
2017-11-17T06:35:31.770Z,0
2017-11-17T06:36:32.264Z,0
2017-11-17T06:37:31.835Z,0
2017-11-17T06:38:32.982Z,0
2017-11-17T06:39:32.046Z,0
2017-11-17T06:40:32.268Z,0
2017-11-17T06:41:31.951Z,0
2017-11-17T06:42:31.788Z,0
2017-11-17T06:43:31.892Z,0
2017-11-17T06:44:32.093Z,0
2017-11-17T06:45:32.014Z,0
2017-11-17T06:46:31.901Z,0
2017-11-17T06:47:31.914Z,0
2017-11-17T06:48:31.842Z,0
2017-11-17T06:49:31.773Z,0
2017-11-17T06:50:32.018Z,0
2017-11-17T06:51:31.986Z,0
2017-11-17T06:52:31.956Z,0
2017-11-17T06:53:31.854Z,0
2017-11-17T06:54:31.787Z,0.1
2017-11-17T06:55:31.993Z,0.1
2017-11-17T06:56:32.053Z,0.1
2017-11-17T06:57:31.976Z,0.1
2017-11-17T06:58:31.843Z,0.1
2017-11-17T06:59:32.134Z,0.1
2017-11-17T07:00:33.567Z,0.1
2017-11-17T07:01:33.294Z,0.1
2017-11-17T07:02:32.401Z,0.1
2017-11-17T07:03:31.856Z,0.1
2017-11-17T07:04:31.764Z,0.1
2017-11-17T07:05:32.067Z,0.1
2017-11-17T07:06:31.992Z,0.1
2017-11-17T07:07:31.763Z,0
2017-11-17T07:08:33.118Z,0
2017-11-17T07:09:31.760Z,0
2017-11-17T07:10:31.878Z,0
2017-11-17T07:11:31.884Z,0
2017-11-17T07:12:32.018Z,0
2017-11-17T07:13:31.774Z,0
2017-11-17T07:14:31.980Z,0
2017-11-17T07:15:31.890Z,0
2017-11-17T07:16:31.753Z,0
2017-11-17T07:17:31.766Z,0
2017-11-17T07:18:31.754Z,0
2017-11-17T07:19:31.781Z,0
2017-11-17T07:20:31.887Z,0
2017-11-17T07:21:31.938Z,0
2017-11-17T07:22:33.903Z,0
2017-11-17T07:23:31.953Z,0
2017-11-17T07:24:31.776Z,0
2017-11-17T07:25:31.755Z,0
2017-11-17T07:26:32.029Z,0
2017-11-17T07:27:31.754Z,0
2017-11-17T07:28:31.762Z,0
2017-11-17T07:29:31.970Z,0
2017-11-17T07:30:31.767Z,0
2017-11-17T07:31:32.093Z,0.2
2017-11-17T07:32:31.959Z,0.2
2017-11-17T07:33:31.828Z,0.2
2017-11-17T07:34:31.871Z,0.2
2017-11-17T07:35:31.784Z,0.3
2017-11-17T07:36:31.979Z,0.4
2017-11-17T07:37:31.773Z,0.5
2017-11-17T07:38:31.747Z,0.5
2017-11-17T07:39:34.213Z,0.5
2017-11-17T07:40:31.911Z,0.4
2017-11-17T07:41:32.093Z,0.4
2017-11-17T07:42:33.547Z,0.3
2017-11-17T07:43:31.862Z,0.3
2017-11-17T07:44:31.834Z,0.3
2017-11-17T07:45:31.749Z,0.3
2017-11-17T07:46:32.258Z,0.3
2017-11-17T07:47:31.912Z,0.3
2017-11-17T07:48:31.760Z,0.2
2017-11-17T07:49:31.759Z,0.3
2017-11-17T07:50:31.745Z,0.3
2017-11-17T07:51:31.777Z,0.3
2017-11-17T07:52:31.944Z,0.3
2017-11-17T07:53:31.742Z,0.2
2017-11-17T07:54:31.864Z,0.2
2017-11-17T07:55:34.591Z,0.2
2017-11-17T07:56:34.296Z,0.2
2017-11-17T07:57:34.356Z,0.2
2017-11-17T07:58:33.385Z,0.2
2017-11-17T07:59:33.264Z,0.1
2017-11-17T08:00:31.758Z,0.1
2017-11-17T08:01:31.760Z,0.1
2017-11-17T08:02:31.737Z,0.1
2017-11-17T08:03:31.741Z,0.1
2017-11-17T08:04:31.729Z,0.1
2017-11-17T08:05:31.763Z,0.1
2017-11-17T08:06:31.721Z,0.1
2017-11-17T08:07:31.802Z,0.1
2017-11-17T08:08:31.735Z,0.1
2017-11-17T08:09:31.762Z,0.1
2017-11-17T08:10:31.747Z,0.1
2017-11-17T08:11:31.766Z,0.1
2017-11-17T08:12:31.778Z,0.1
2017-11-17T08:13:31.747Z,0
2017-11-17T08:14:31.739Z,0
2017-11-17T08:15:31.752Z,0
2017-11-17T08:16:31.739Z,0
2017-11-17T08:17:31.805Z,0
2017-11-17T08:18:31.725Z,0.1
2017-11-17T08:19:31.749Z,0.4
2017-11-17T08:20:31.741Z,0.5
2017-11-17T08:21:31.737Z,0.6
2017-11-17T08:22:31.812Z,0.8
2017-11-17T08:23:31.724Z,1.2
2017-11-17T08:24:31.740Z,1.3
2017-11-17T08:25:31.719Z,1.4
2017-11-17T08:26:31.738Z,1.3
2017-11-17T08:27:31.777Z,1.3
2017-11-17T08:28:31.720Z,1.2
2017-11-17T08:29:31.743Z,1.2
2017-11-17T08:30:31.730Z,1.1
2017-11-17T08:31:31.725Z,1
2017-11-17T08:32:31.819Z,1.1
2017-11-17T08:33:31.722Z,1.1
2017-11-17T08:34:31.739Z,1
2017-11-17T08:35:31.727Z,0.9
2017-11-17T08:36:31.736Z,0.9
2017-11-17T08:37:31.787Z,0.8
2017-11-17T08:38:31.748Z,0.8
2017-11-17T08:39:31.732Z,0.7
2017-11-17T08:40:31.743Z,0.6
2017-11-17T08:41:31.725Z,0.6
2017-11-17T08:42:31.807Z,0.6
2017-11-17T08:43:31.731Z,0.7
2017-11-17T08:44:31.733Z,0.7
2017-11-17T08:45:31.720Z,0.6
2017-11-17T08:46:31.762Z,0.5
2017-11-17T08:47:31.775Z,0.7
2017-11-17T08:48:31.762Z,0.6
2017-11-17T08:49:31.721Z,0.8
2017-11-17T08:50:31.731Z,1
2017-11-17T08:51:31.722Z,1.1
2017-11-17T08:52:31.806Z,1
2017-11-17T08:53:31.730Z,0.9
2017-11-17T08:54:31.721Z,0.8
2017-11-17T08:55:31.734Z,0.7
2017-11-17T08:56:31.731Z,0.6
2017-11-17T08:57:31.789Z,0.6
2017-11-17T08:58:31.727Z,0.5
2017-11-17T08:59:31.721Z,0.5
2017-11-17T09:00:31.714Z,0.4
2017-11-17T09:01:31.740Z,0.4
2017-11-17T09:02:31.797Z,0.4
2017-11-17T09:03:31.729Z,0.3
2017-11-17T09:04:31.712Z,0.3
2017-11-17T09:05:31.728Z,0.3
2017-11-17T09:06:31.711Z,0.2
2017-11-17T09:07:31.784Z,0.2
2017-11-17T09:08:31.706Z,0.2
2017-11-17T09:09:31.728Z,0.2
2017-11-17T09:10:31.707Z,0.2
2017-11-17T09:11:31.725Z,0.1
2017-11-17T09:12:31.801Z,0.1
2017-11-17T09:13:31.710Z,0.1
2017-11-17T09:14:31.728Z,0.1
2017-11-17T09:15:31.706Z,0.1
2017-11-17T09:16:31.741Z,0.1
2017-11-17T09:17:31.757Z,0.1
2017-11-17T09:18:31.708Z,0.1
2017-11-17T09:19:31.723Z,0.1
2017-11-17T09:20:31.711Z,0.1
2017-11-17T09:21:31.732Z,0.1
2017-11-17T09:22:31.893Z,0.1
2017-11-17T09:23:31.721Z,0.1
2017-11-17T09:24:31.717Z,0.2
2017-11-17T09:25:31.720Z,0.3
2017-11-17T09:26:31.706Z,0.2
2017-11-17T09:27:31.800Z,0.3
2017-11-17T09:28:31.704Z,0.4
2017-11-17T09:29:31.722Z,0.7
2017-11-17T09:30:31.707Z,0.6
2017-11-17T09:31:31.726Z,0.6
2017-11-17T09:32:31.767Z,0.7
2017-11-17T09:33:31.730Z,0.7
2017-11-17T09:34:31.698Z,1.1
2017-11-17T09:35:31.732Z,1.2
2017-11-17T09:36:31.709Z,1.4
2017-11-17T09:37:31.784Z,1.6
2017-11-17T09:38:31.694Z,1.7
2017-11-17T09:39:31.726Z,1.9
2017-11-17T09:40:31.714Z,2.1
2017-11-17T09:41:31.714Z,2.4
2017-11-17T09:42:31.707Z,2.4
2017-11-17T09:43:31.719Z,2.2
2017-11-17T09:44:31.692Z,2
2017-11-17T09:45:31.722Z,1.8
2017-11-17T09:46:31.709Z,1.8
2017-11-17T09:47:31.722Z,1.7
2017-11-17T09:48:31.702Z,1.5
2017-11-17T09:49:31.763Z,1.4
2017-11-17T09:50:31.706Z,1.2
2017-11-17T09:51:31.715Z,1.1
2017-11-17T09:52:31.696Z,1
2017-11-17T09:53:31.709Z,0.9
2017-11-17T09:54:31.708Z,0.8
2017-11-17T09:55:31.717Z,0.7
2017-11-17T09:56:31.698Z,0.7
2017-11-17T09:57:31.715Z,0.6
2017-11-17T09:58:31.685Z,0.5
2017-11-17T09:59:31.724Z,0.5
2017-11-17T10:00:31.688Z,0.5
2017-11-17T10:01:31.694Z,0.4
2017-11-17T10:02:31.700Z,0.4
2017-11-17T10:03:31.689Z,0.3
2017-11-17T10:04:31.709Z,0.3
2017-11-17T10:05:31.693Z,0.3
2017-11-17T10:06:31.711Z,0.2
2017-11-17T10:07:31.690Z,0.2
2017-11-17T10:08:31.710Z,0.2
2017-11-17T10:09:31.701Z,0.2
2017-11-17T10:10:31.686Z,0.2
2017-11-17T10:11:31.702Z,0.1
2017-11-17T10:12:31.704Z,0.1
2017-11-17T10:13:31.690Z,0.1
2017-11-17T10:14:31.721Z,0.1
2017-11-17T10:15:31.698Z,0.1
2017-11-17T10:16:31.716Z,0.1
2017-11-17T10:17:31.703Z,0.1
2017-11-17T10:18:31.706Z,0.1
2017-11-17T10:19:31.689Z,0.1
2017-11-17T10:20:31.701Z,0.1
2017-11-17T10:21:31.684Z,0.1
2017-11-17T10:22:31.710Z,0
2017-11-17T10:23:31.695Z,0
2017-11-17T10:24:31.706Z,0
2017-11-17T10:25:31.685Z,0
2017-11-17T10:26:31.702Z,0
2017-11-17T10:27:31.687Z,0
2017-11-17T10:28:31.707Z,0
2017-11-17T10:29:31.685Z,0
2017-11-17T10:30:31.695Z,0
2017-11-17T10:31:31.684Z,0
2017-11-17T10:32:31.716Z,0
2017-11-17T10:33:31.724Z,0
2017-11-17T10:34:31.709Z,0
2017-11-17T10:35:31.676Z,0
2017-11-17T10:36:31.749Z,0
2017-11-17T10:37:31.710Z,0
2017-11-17T10:38:31.733Z,0
2017-11-17T10:39:31.707Z,0
2017-11-17T10:40:31.681Z,0
2017-11-17T10:41:31.681Z,0
2017-11-17T10:42:31.684Z,0
2017-11-17T10:43:31.775Z,0
2017-11-17T10:44:31.680Z,0
2017-11-17T10:45:31.674Z,0
2017-11-17T10:46:31.685Z,0
2017-11-17T10:47:31.683Z,0
2017-11-17T10:48:31.734Z,0
2017-11-17T10:49:31.706Z,0
2017-11-17T10:50:31.684Z,0
2017-11-17T10:51:31.675Z,0
2017-11-17T10:52:31.670Z,0
2017-11-17T10:53:31.741Z,0
2017-11-17T10:54:31.677Z,0
2017-11-17T10:55:31.674Z,0
2017-11-17T10:56:31.678Z,0
2017-11-17T10:57:31.687Z,0
2017-11-17T10:58:31.737Z,0
2017-11-17T10:59:31.666Z,0
2017-11-17T11:00:31.672Z,0
2017-11-17T11:01:31.669Z,0
2017-11-17T11:02:31.671Z,0
2017-11-17T11:03:31.742Z,0
2017-11-17T11:04:31.677Z,0
2017-11-17T11:05:31.689Z,0
2017-11-17T11:06:31.669Z,0
2017-11-17T11:07:31.675Z,0
2017-11-17T11:08:31.763Z,0
2017-11-17T11:09:31.676Z,0
2017-11-17T11:10:31.681Z,0
2017-11-17T11:11:31.675Z,0
2017-11-17T11:12:31.677Z,0
2017-11-17T11:13:31.744Z,0
2017-11-17T11:14:31.676Z,0
2017-11-17T11:15:31.678Z,0
2017-11-17T11:16:31.668Z,0
2017-11-17T11:17:31.683Z,0
2017-11-17T11:18:31.716Z,0
2017-11-17T11:19:31.675Z,0
2017-11-17T11:20:31.680Z,0
2017-11-17T11:21:31.675Z,0
2017-11-17T11:22:31.688Z,0
2017-11-17T11:23:31.743Z,0
2017-11-17T11:24:31.676Z,0
2017-11-17T11:25:31.667Z,0
2017-11-17T11:26:31.667Z,0
2017-11-17T11:27:31.662Z,0
2017-11-17T11:28:31.724Z,0
2017-11-17T11:29:31.659Z,0
2017-11-17T11:30:31.657Z,0
2017-11-17T11:31:31.667Z,0
2017-11-17T11:32:31.656Z,0
2017-11-17T11:33:31.744Z,0
2017-11-17T11:34:31.680Z,0
2017-11-17T11:35:31.664Z,0
2017-11-17T11:36:31.669Z,0
2017-11-17T11:37:31.673Z,0
2017-11-17T11:38:31.712Z,0
2017-11-17T11:39:31.668Z,0
2017-11-17T11:40:31.660Z,0
2017-11-17T11:41:31.662Z,0
2017-11-17T11:42:31.671Z,0
2017-11-17T11:43:31.670Z,0
2017-11-17T11:44:31.670Z,0
2017-11-17T11:45:31.679Z,0
2017-11-17T11:46:31.668Z,0
2017-11-17T11:47:31.655Z,0
2017-11-17T11:48:31.659Z,0
2017-11-17T11:49:31.658Z,0
2017-11-17T11:50:31.655Z,0
2017-11-17T11:51:31.662Z,0
2017-11-17T11:52:31.670Z,0
2017-11-17T11:53:31.653Z,0
2017-11-17T11:54:31.657Z,0
2017-11-17T11:55:31.664Z,0
2017-11-17T11:56:31.662Z,0
2017-11-17T11:57:31.673Z,0
2017-11-17T11:58:31.661Z,0
2017-11-17T11:59:31.657Z,0
2017-11-17T12:00:31.655Z,0
2017-11-17T12:01:31.653Z,0
2017-11-17T12:02:31.650Z,0
2017-11-17T12:03:31.639Z,0
2017-11-17T12:04:31.669Z,0
2017-11-17T12:05:31.653Z,0
2017-11-17T12:06:31.671Z,0
2017-11-17T12:07:31.652Z,0
2017-11-17T12:08:31.657Z,0
2017-11-17T12:09:31.657Z,0
2017-11-17T12:10:31.651Z,0
2017-11-17T12:11:31.648Z,0
2017-11-17T12:12:31.656Z,0
2017-11-17T12:13:31.670Z,0
2017-11-17T12:14:31.661Z,0
2017-11-17T12:15:31.658Z,0
2017-11-17T12:16:31.656Z,0
2017-11-17T12:17:31.659Z,0
2017-11-17T12:18:31.652Z,0
2017-11-17T12:19:31.660Z,0
2017-11-17T12:20:31.670Z,0
2017-11-17T12:21:31.646Z,0
2017-11-17T12:22:31.642Z,0
2017-11-17T12:23:31.644Z,0
2017-11-17T12:24:31.646Z,0
2017-11-17T12:25:31.654Z,0
2017-11-17T12:26:31.645Z,0
2017-11-17T12:27:31.693Z,0
2017-11-17T12:28:31.664Z,0
2017-11-17T12:29:31.646Z,0
2017-11-17T12:30:31.653Z,0
2017-11-17T12:31:31.635Z,0
2017-11-17T12:32:31.639Z,0
2017-11-17T12:33:31.645Z,0
2017-11-17T12:34:31.651Z,0
2017-11-17T12:35:31.664Z,0
2017-11-17T12:36:31.645Z,0
2017-11-17T12:37:31.648Z,0
2017-11-17T12:38:31.641Z,0
2017-11-17T12:39:31.695Z,0
2017-11-17T12:40:31.696Z,0
2017-11-17T12:41:31.645Z,0
2017-11-17T12:42:31.653Z,0
2017-11-17T12:43:31.644Z,0
2017-11-17T12:44:31.698Z,0
2017-11-17T12:45:31.647Z,0
2017-11-17T12:46:31.643Z,0
2017-11-17T12:47:31.648Z,0
2017-11-17T12:48:31.686Z,0
2017-11-17T12:49:31.691Z,0
2017-11-17T12:50:31.663Z,0
2017-11-17T12:51:31.645Z,0
2017-11-17T12:52:31.645Z,0
2017-11-17T12:53:31.651Z,0
2017-11-17T12:54:31.709Z,0
2017-11-17T12:55:31.658Z,0
2017-11-17T12:56:31.649Z,0
2017-11-17T12:57:31.642Z,0
2017-11-17T12:58:31.648Z,0
2017-11-17T12:59:31.703Z,0
2017-11-17T13:00:31.641Z,0
2017-11-17T13:01:31.638Z,0.4
2017-11-17T13:02:31.647Z,0.4
2017-11-17T13:03:31.633Z,0.4
2017-11-17T13:04:31.756Z,0.4
2017-11-17T13:05:31.635Z,0.4
2017-11-17T13:06:31.642Z,0.4
2017-11-17T13:07:31.625Z,0.4
2017-11-17T13:08:31.652Z,0.3
2017-11-17T13:09:31.679Z,0.3
2017-11-17T13:10:31.646Z,0.3
2017-11-17T13:11:31.636Z,0.3
2017-11-17T13:12:31.633Z,0.3
2017-11-17T13:13:31.635Z,0.3
2017-11-17T13:14:31.632Z,0.3
2017-11-17T13:15:31.633Z,0.4
2017-11-17T13:16:31.700Z,0.5
2017-11-17T13:17:31.628Z,0.5
2017-11-17T13:18:32.665Z,0.6
2017-11-17T13:19:32.883Z,0.5
2017-11-17T13:20:31.730Z,0.5
2017-11-17T13:21:31.679Z,0.4
2017-11-17T13:22:31.762Z,0.4
2017-11-17T13:23:31.706Z,0.4
2017-11-17T13:24:31.678Z,0.3
2017-11-17T13:25:31.626Z,0.3
2017-11-17T13:26:31.624Z,0.3
2017-11-17T13:27:31.691Z,0.2
2017-11-17T13:28:31.705Z,0.2
2017-11-17T13:29:31.656Z,0.2
2017-11-17T13:30:34.080Z,0.2
2017-11-17T13:31:31.643Z,0.2
2017-11-17T13:32:31.629Z,0.2
2017-11-17T13:33:33.680Z,0.1
2017-11-17T13:34:31.853Z,0.1
2017-11-17T13:35:31.628Z,0.1
2017-11-17T13:36:31.631Z,0.1
2017-11-17T13:37:31.627Z,0.1
2017-11-17T13:38:31.641Z,0.1
2017-11-17T13:39:31.624Z,0.1
2017-11-17T13:40:31.638Z,0.1
2017-11-17T13:41:31.630Z,0.1
2017-11-17T13:42:31.636Z,0.1
2017-11-17T13:43:31.632Z,0.1
2017-11-17T13:44:31.626Z,0
2017-11-17T13:45:31.628Z,0
2017-11-17T13:46:31.627Z,0
2017-11-17T13:47:31.627Z,0
2017-11-17T13:48:31.629Z,0
2017-11-17T13:49:31.634Z,0.1
2017-11-17T13:50:31.617Z,0.1
2017-11-17T13:51:31.616Z,0
2017-11-17T13:52:31.625Z,0
2017-11-17T13:53:31.632Z,0
2017-11-17T13:54:31.619Z,0
2017-11-17T13:55:31.619Z,0.1
2017-11-17T13:56:31.626Z,0.2
2017-11-17T13:57:31.641Z,0.1
2017-11-17T13:58:31.626Z,0.1
2017-11-17T13:59:31.630Z,0.1
2017-11-17T14:00:31.679Z,0.1
2017-11-17T14:01:31.623Z,0.1
2017-11-17T14:02:31.628Z,0.1
2017-11-17T14:03:31.621Z,0.1
2017-11-17T14:04:31.636Z,0.1
2017-11-17T14:05:32.705Z,0.1
2017-11-17T14:06:31.851Z,0.1
2017-11-17T14:07:31.624Z,0.1
2017-11-17T14:08:31.615Z,0
2017-11-17T14:09:31.630Z,0
2017-11-17T14:10:31.704Z,0